Time;durP1;ratioP1;P1;durP2;ratioP2;P2;SDS_P1;SDS_P2;PMS_P1;PMS_P2;Temp;Humidity;BMP_temperature;BMP_pressure;BME280_temperature;BME280_humidity;BME280_pressure;Samples;Min_cycle;Max_cycle;Signal;HPM_P1;HPM_P2
2020/12/09 00:02:20;;;;;;;19.95;4.57;;;;;;;4.33;84.32;99458.06;4925909;29;20060;-77
2020/12/09 00:05:43;;;;;;;14.48;3.70;;;;;;;4.35;83.86;99474.06;4934200;29;20024;-77
2020/12/09 00:12:33;;;;;;;;;;;;;;;;;;;;;
2020/12/09 00:18:49;;;;;;;24.48;3.53;;;;;;;4.26;85.21;99470.94;4792662;29;20035;-76
2020/12/09 00:24:32;;;;;;;15.95;3.85;;;;;;;4.34;84.95;99465.13;4781940;30;20051;-76
2020/12/09 00:27:03;;;;;;;10.45;3.30;;;;;;;4.35;84.96;99461.34;4789194;29;20039;-79
2020/12/09 00:29:32;;;;;;;11.48;3.38;;;;;;;4.41;84.91;99459.53;4795920;29;20035;-78
2020/12/09 00:32:06;;;;;;;10.68;3.53;;;;;;;4.43;84.00;99448.47;4880521;29;20040;-78
2020/12/09 00:34:40;;;;;;;11.95;3.35;;;;;;;4.56;84.43;99469.75;4884103;29;20025;-78
2020/12/09 00:37:08;;;;;;;10.93;3.53;;;;;;;4.52;84.19;99449.66;4893249;29;20043;-77
2020/12/09 00:39:36;;;;;;;13.27;3.28;;;;;;;4.63;83.10;99450.59;4898365;29;20048;-77
2020/12/09 00:42:01;;;;;;;19.17;3.63;;;;;;;4.63;83.08;99443.31;4896463;29;20033;-77
2020/12/09 00:44:27;;;;;;;6.43;2.47;;;;;;;4.67;83.14;99451.75;4861541;29;20539;-75
2020/12/09 00:46:52;;;;;;;14.88;3.17;;;;;;;4.72;82.61;99452.63;4905550;29;20036;-75
2020/12/09 00:49:18;;;;;;;7.13;2.55;;;;;;;4.68;82.71;99454.22;4907159;29;20024;-75
2020/12/09 00:51:43;;;;;;;16.65;3.42;;;;;;;4.55;82.86;99444.56;4899574;29;20028;-74
2020/12/09 00:54:09;;;;;;;22.00;2.70;;;;;;;4.55;83.51;99451.88;4890979;29;20025;-73
2020/12/09 00:56:34;;;;;;;14.35;3.22;;;;;;;4.56;82.86;99461.63;4881828;29;20024;-73
2020/12/09 00:59:04;;;;;;;13.27;3.25;;;;;;;4.44;83.43;99452.78;4890155;29;20043;-72
2020/12/09 01:01:32;;;;;;;7.68;2.47;;;;;;;4.39;82.98;99455.44;4900566;29;20036;-74
2020/12/09 01:03:57;;;;;;;7.18;3.08;;;;;;;4.33;83.29;99457.25;4889932;29;20093;-72
2020/12/09 01:06:23;;;;;;;10.85;2.22;;;;;;;4.33;83.21;99471.59;4855070;29;21159;-73
2020/12/09 01:08:48;;;;;;;8.57;2.53;;;;;;;4.24;83.50;99459.56;4891265;29;20052;-73
2020/12/09 01:11:16;;;;;;;7.20;1.92;;;;;;;4.27;82.86;99467.19;4884774;29;20040;-73
2020/12/09 01:13:44;;;;;;;9.05;2.72;;;;;;;4.20;83.62;99461.13;4904223;29;20033;-72
2020/12/09 01:16:21;;;;;;;12.55;2.70;;;;;;;4.21;83.49;99468.19;4909481;29;20553;-74
2020/12/09 01:18:48;;;;;;;4.10;1.48;;;;;;;4.16;83.16;99463.50;4921074;29;20145;-72
2020/12/09 01:21:14;;;;;;;10.52;2.00;;;;;;;4.14;83.35;99460.22;4894096;29;20020;-73
2020/12/09 01:23:39;;;;;;;13.52;1.95;;;;;;;4.11;83.10;99466.13;4890684;29;20021;-73
2020/12/09 01:26:09;;;;;;;8.43;2.47;;;;;;;4.09;83.61;99462.00;4899626;29;20028;-72
2020/12/09 01:28:35;;;;;;;9.13;2.35;;;;;;;3.99;83.39;99466.22;4923888;29;20035;-72
2020/12/09 01:31:00;;;;;;;18.05;2.30;;;;;;;3.98;83.31;99472.69;4888471;29;20360;-72
2020/12/09 01:33:26;;;;;;;13.48;3.47;;;;;;;3.89;83.55;99465.25;4895497;29;20029;-72
2020/12/09 01:35:51;;;;;;;17.98;3.42;;;;;;;3.93;84.02;99475.31;4932382;29;20092;-72
2020/12/09 01:38:17;;;;;;;18.73;2.17;;;;;;;3.91;83.86;99482.84;4895358;29;20048;-72
2020/12/09 01:40:42;;;;;;;9.23;1.83;;;;;;;3.89;83.86;99487.69;4929681;29;20024;-73
2020/12/09 01:43:08;;;;;;;19.35;2.63;;;;;;;3.83;83.18;99475.16;4894919;29;20035;-73
2020/12/09 01:45:33;;;;;;;12.38;1.85;;;;;;;3.92;83.64;99487.19;4882719;29;20060;-72
2020/12/09 01:47:59;;;;;;;15.55;2.20;;;;;;;3.84;83.11;99476.75;4877760;29;20078;-72
2020/12/09 01:50:28;;;;;;;4.68;2.00;;;;;;;3.86;83.31;99488.19;4888585;29;20036;-72
2020/12/09 01:52:55;;;;;;;12.10;2.08;;;;;;;3.86;82.69;99490.06;4897417;29;20021;-73
2020/12/09 01:55:20;;;;;;;10.55;2.13;;;;;;;3.81;83.24;99482.66;4923901;29;20037;-72
2020/12/09 01:57:46;;;;;;;8.35;1.83;;;;;;;3.83;82.59;99488.66;4894008;29;20076;-72
2020/12/09 02:00:11;;;;;;;14.05;2.35;;;;;;;3.76;83.42;99477.19;4888181;29;20032;-72
2020/12/09 02:02:37;;;;;;;16.83;2.63;;;;;;;3.75;82.35;99483.66;4891162;29;20072;-72
2020/12/09 02:05:06;;;;;;;6.20;1.92;;;;;;;3.77;82.92;99492.34;4927021;29;20165;-72
2020/12/09 02:07:31;;;;;;;18.42;2.15;;;;;;;3.69;82.31;99484.63;4891608;29;20387;-74
2020/12/09 02:10:02;;;;;;;11.80;2.00;;;;;;;3.70;82.13;99481.69;4927226;29;20035;-73
2020/12/09 02:12:29;;;;;;;11.25;2.08;;;;;;;3.65;82.14;99485.13;4893231;29;20033;-74
2020/12/09 02:14:57;;;;;;;9.77;1.48;;;;;;;3.63;82.85;99479.13;4891753;29;20156;-74
2020/12/09 02:17:24;;;;;;;20.80;2.65;;;;;;;3.64;82.87;99491.59;4899434;29;20036;-73
2020/12/09 02:19:49;;;;;;;9.52;1.60;;;;;;;3.62;83.06;99492.88;4913558;29;20040;-73
2020/12/09 02:22:15;;;;;;;13.48;2.10;;;;;;;3.61;83.39;99493.97;4919043;29;20032;-74
2020/12/09 02:24:40;;;;;;;11.18;2.75;;;;;;;3.66;83.49;99492.19;4909427;29;20035;-74
2020/12/09 02:27:06;;;;;;;15.90;1.77;;;;;;;3.65;83.25;99493.22;4890702;29;20032;-73
2020/12/09 02:29:32;;;;;;;17.60;1.80;;;;;;;3.60;82.36;99493.13;4920681;29;20293;-74
2020/12/09 02:31:57;;;;;;;5.35;1.45;;;;;;;3.59;82.22;99480.69;4911209;29;20028;-74
2020/12/09 02:34:24;;;;;;;15.75;4.93;;;;;;;3.56;82.69;99489.25;4896259;29;20020;-74
2020/12/09 02:36:49;;;;;;;23.42;2.33;;;;;;;3.54;82.73;99494.09;4897817;29;20044;-75
2020/12/09 02:39:15;;;;;;;17.13;2.20;;;;;;;3.48;83.26;99489.69;4916877;29;20040;-75
2020/12/09 02:41:40;;;;;;;12.70;2.30;;;;;;;3.52;83.23;99495.41;4902558;29;20122;-74
2020/12/09 02:44:06;;;;;;;8.82;2.08;;;;;;;3.51;82.84;99497.28;4906138;29;20463;-75
2020/12/09 02:46:32;;;;;;;17.48;2.53;;;;;;;3.52;83.43;99501.66;4896694;29;20031;-74
2020/12/09 02:49:00;;;;;;;7.63;2.13;;;;;;;3.45;83.13;99495.56;4890950;29;20084;-75
2020/12/09 02:51:25;;;;;;;9.68;1.88;;;;;;;3.49;83.11;99507.53;4892715;29;20055;-73
2020/12/09 02:53:51;;;;;;;8.75;1.65;;;;;;;3.48;83.14;99511.31;4884012;29;20388;-71
2020/12/09 02:56:20;;;;;;;12.32;2.05;;;;;;;3.45;83.58;99517.19;4908878;29;20383;-73
2020/12/09 02:58:48;;;;;;;15.77;1.63;;;;;;;3.47;83.18;99512.34;4903962;29;20028;-74
2020/12/09 03:01:13;;;;;;;14.75;2.17;;;;;;;3.50;82.94;99498.34;4894343;29;20567;-70
2020/12/09 03:03:39;;;;;;;17.30;2.53;;;;;;;3.60;83.43;99508.53;4891499;29;20072;-74
2020/12/09 03:06:07;;;;;;;8.00;1.85;;;;;;;3.57;82.25;99512.53;4913487;29;20024;-75
2020/12/09 03:08:32;;;;;;;8.02;1.88;;;;;;;3.54;82.61;99506.81;4908483;29;20036;-76
2020/12/09 03:10:58;;;;;;;15.45;2.45;;;;;;;3.59;82.49;99523.94;4908706;29;20473;-75
2020/12/09 03:13:23;;;;;;;15.45;2.28;;;;;;;3.62;83.50;99515.34;4888323;29;20565;-76
2020/12/09 03:15:49;;;;;;;19.13;2.67;;;;;;;3.57;82.43;99509.84;4886673;29;20115;-74
2020/12/09 03:18:14;;;;;;;11.02;1.70;;;;;;;3.67;82.45;99507.31;4902173;29;20043;-74
2020/12/09 03:20:44;;;;;;;10.80;1.45;;;;;;;3.64;82.10;99494.28;4912241;29;20039;-74
2020/12/09 03:23:12;;;;;;;11.38;2.15;;;;;;;3.71;82.49;99509.53;4898120;29;20040;-74
2020/12/09 03:25:41;;;;;;;12.30;2.28;;;;;;;3.72;81.70;99500.38;4898937;29;20451;-73
2020/12/09 03:28:06;;;;;;;5.68;2.22;;;;;;;3.67;81.57;99493.00;4917326;29;20030;-73
2020/12/09 03:30:37;;;;;;;10.18;1.63;;;;;;;3.78;81.53;99502.09;4896622;29;20036;-74
2020/12/09 03:33:02;;;;;;;8.88;1.75;;;;;;;3.72;81.14;99494.97;4912251;29;20040;-74
2020/12/09 03:35:28;;;;;;;2.35;1.00;;;;;;;3.83;82.04;99499.50;4909375;29;20055;-73
2020/12/09 03:37:53;;;;;;;16.55;2.70;;;;;;;3.88;81.94;99496.84;4904278;29;20470;-74
2020/12/09 03:40:19;;;;;;;11.10;1.77;;;;;;;3.92;81.86;99511.53;4894836;29;20497;-73
2020/12/09 03:42:44;;;;;;;3.60;1.15;;;;;;;3.96;81.20;99515.41;4900088;29;20040;-74
2020/12/09 03:45:09;;;;;;;12.07;1.92;;;;;;;3.94;81.20;99503.19;4872144;29;20043;-74
2020/12/09 03:47:35;;;;;;;13.40;2.30;;;;;;;4.03;81.16;99512.53;4908637;29;20818;-74
2020/12/09 03:50:00;;;;;;;11.55;2.22;;;;;;;3.99;80.74;99506.78;4890478;29;20115;-73
2020/12/09 03:52:28;;;;;;;7.00;1.27;;;;;;;4.09;80.97;99505.31;4914339;29;20034;-73
2020/12/09 03:54:54;;;;;;;20.88;1.33;;;;;;;4.13;80.94;99511.88;4901083;29;20031;-74
2020/12/09 03:57:19;;;;;;;8.05;1.73;;;;;;;4.15;81.21;99509.75;4906423;29;20044;-73
2020/12/09 03:59:44;;;;;;;4.18;1.30;;;;;;;4.18;80.45;99515.50;4914037;29;20028;-73
2020/12/09 04:02:10;;;;;;;9.90;2.10;;;;;;;4.17;80.44;99513.03;4907382;29;20123;-74
2020/12/09 04:04:35;;;;;;;10.25;1.75;;;;;;;4.14;80.29;99502.69;4898820;29;20099;-72
2020/12/09 04:07:01;;;;;;;13.75;2.00;;;;;;;4.18;80.28;99506.56;4912786;29;20047;-73
2020/12/09 04:09:26;;;;;;;19.67;1.83;;;;;;;4.19;80.40;99508.19;4913210;29;20100;-72
2020/12/09 04:11:52;;;;;;;7.07;1.80;;;;;;;4.24;80.96;99513.69;4926062;29;20036;-73
2020/12/09 04:14:17;;;;;;;4.60;1.42;;;;;;;4.24;80.72;99510.97;4904850;29;20044;-72
2020/12/09 04:16:42;;;;;;;9.95;1.65;;;;;;;4.29;80.75;99504.81;4927176;29;20052;-73
2020/12/09 04:19:08;;;;;;;2.47;0.98;;;;;;;4.29;80.58;99500.25;4916999;29;20059;-73
2020/12/09 04:21:34;;;;;;;10.73;1.58;;;;;;;4.29;80.08;99511.06;4921751;29;20060;-74
2020/12/09 04:23:59;;;;;;;5.05;1.20;;;;;;;4.31;79.90;99506.22;4906428;29;20037;-74
2020/12/09 04:26:24;;;;;;;10.57;1.67;;;;;;;4.29;79.83;99508.38;4931567;29;20040;-74
2020/12/09 04:28:50;;;;;;;18.48;1.42;;;;;;;4.30;79.51;99503.75;4929715;29;20056;-73
2020/12/09 04:31:19;;;;;;;8.30;1.63;;;;;;;4.22;80.18;99512.28;4905233;29;20039;-74
2020/12/09 04:33:55;;;;;;;6.38;1.45;;;;;;;4.29;79.86;99516.50;4882670;29;20056;-73
2020/12/09 04:36:22;;;;;;;13.70;1.48;;;;;;;4.30;80.51;99526.22;4899056;29;20563;-73
2020/12/09 04:38:47;;;;;;;6.57;0.98;;;;;;;4.31;79.68;99530.59;4935303;29;20032;-73
2020/12/09 04:41:13;;;;;;;10.18;1.45;;;;;;;4.29;80.44;99527.31;4932439;29;20043;-73
2020/12/09 04:43:38;;;;;;;5.53;2.15;;;;;;;4.29;79.65;99532.72;4894754;29;20195;-73
2020/12/09 04:46:04;;;;;;;8.32;1.33;;;;;;;4.29;80.23;99516.50;4888448;29;20053;-74
2020/12/09 04:48:34;;;;;;;10.10;2.13;;;;;;;4.30;80.28;99523.50;4884877;29;20460;-73
2020/12/09 04:51:02;;;;;;;11.20;1.13;;;;;;;4.34;79.83;99524.66;4893745;29;20111;-74
2020/12/09 04:53:30;;;;;;;4.57;1.05;;;;;;;4.30;79.92;99507.28;4902001;29;20028;-73
2020/12/09 04:56:00;;;;;;;14.95;1.52;;;;;;;4.29;79.76;99511.06;4902963;29;20044;-75
2020/12/09 04:58:53;;;;;;;8.43;1.35;;;;;;;4.28;80.18;99514.84;4891444;29;20032;-74
2020/12/09 05:01:18;;;;;;;13.18;1.92;;;;;;;4.27;80.27;99524.00;4896055;29;20090;-74
2020/12/09 05:03:51;;;;;;;5.10;0.98;;;;;;;4.27;79.77;99529.44;4927042;29;20123;-73
2020/12/09 05:06:19;;;;;;;7.45;1.83;;;;;;;4.25;80.09;99539.69;4901686;29;20127;-74
2020/12/09 05:09:09;;;;;;;8.98;1.67;;;;;;;4.25;80.39;99538.84;4900428;29;20115;-74
2020/12/09 05:11:35;;;;;;;12.77;1.48;;;;;;;4.18;80.57;99525.50;4900878;29;20032;-74
2020/12/09 05:14:01;;;;;;;9.07;1.08;;;;;;;4.17;80.12;99529.25;4912591;29;20031;-74
2020/12/09 05:16:27;;;;;;;13.88;1.77;;;;;;;4.21;79.97;99538.53;4890743;29;20064;-74
2020/12/09 05:19:01;;;;;;;13.43;2.00;;;;;;;4.19;79.80;99538.78;4897534;29;20392;-73
2020/12/09 05:21:26;;;;;;;11.20;1.60;;;;;;;4.18;80.40;99536.31;4874676;29;20025;-74
2020/12/09 05:23:56;;;;;;;7.47;1.40;;;;;;;4.15;80.05;99539.53;4884541;29;20033;-75
2020/12/09 05:26:25;;;;;;;11.85;1.45;;;;;;;4.18;80.74;99539.03;4883659;29;20032;-74
2020/12/09 05:29:11;;;;;;;10.68;1.40;;;;;;;4.16;80.71;99528.47;4900340;29;20029;-73
2020/12/09 05:32:03;;;;;;;10.43;1.15;;;;;;;4.14;80.87;99529.75;4887155;29;20036;-74
2020/12/09 05:34:34;;;;;;;5.53;1.90;;;;;;;4.09;80.56;99532.38;4895632;29;20039;-74
2020/12/09 05:37:13;;;;;;;7.68;2.03;;;;;;;4.10;80.32;99528.59;4866644;29;20047;-74
2020/12/09 05:39:51;;;;;;;7.20;0.90;;;;;;;4.09;80.40;99532.38;4888630;29;20032;-74
2020/12/09 05:42:18;;;;;;;11.23;1.80;;;;;;;4.09;80.24;99535.06;4899359;29;20535;-74
2020/12/09 05:44:44;;;;;;;6.10;1.52;;;;;;;4.13;80.88;99547.06;4891239;29;20115;-74
2020/12/09 05:47:10;;;;;;;14.82;1.25;;;;;;;4.17;79.94;99550.91;4897016;29;20051;-74
2020/12/09 05:49:39;;;;;;;10.20;1.63;;;;;;;4.21;80.06;99546.66;4885156;29;21234;-74
2020/12/09 05:52:11;;;;;;;4.82;1.45;;;;;;;4.30;79.84;99544.38;4883635;29;20032;-73
2020/12/09 05:54:38;;;;;;;9.80;1.50;;;;;;;4.47;79.50;99552.50;4874416;29;20109;-74
2020/12/09 05:57:11;;;;;;;12.60;2.08;;;;;;;4.52;79.58;99553.38;4886698;29;20032;-74
2020/12/09 05:59:50;;;;;;;10.63;1.38;;;;;;;4.61;79.21;99551.06;4880145;29;20424;-74
2020/12/09 06:02:20;;;;;;;11.30;1.85;;;;;;;4.69;79.10;99556.06;4875336;29;20092;-74
2020/12/09 06:04:56;;;;;;;5.50;1.23;;;;;;;4.71;78.57;99550.41;4893757;29;20037;-74
2020/12/09 06:07:29;;;;;;;12.30;1.02;;;;;;;4.77;78.29;99549.41;4884683;29;20048;-74
2020/12/09 06:10:03;;;;;;;8.20;1.25;;;;;;;4.84;77.96;99562.78;4902534;29;20016;-75
2020/12/09 06:12:29;;;;;;;8.90;1.77;;;;;;;4.81;78.11;99571.41;4894047;29;20040;-74
2020/12/09 06:15:16;;;;;;;6.50;1.60;;;;;;;4.70;78.26;99556.88;4878971;29;20375;-74
2020/12/09 06:17:43;;;;;;;4.60;1.27;;;;;;;4.68;78.51;99562.53;4906849;29;20048;-74
2020/12/09 06:20:09;;;;;;;8.90;1.23;;;;;;;4.62;78.87;99558.13;4899630;29;20698;-74
2020/12/09 06:22:34;;;;;;;9.00;1.60;;;;;;;4.67;78.75;99560.91;4902299;29;20048;-74
2020/12/09 06:25:07;;;;;;;17.67;2.55;;;;;;;4.65;78.25;99551.41;4891870;29;20111;-74
2020/12/09 06:27:35;;;;;;;4.95;1.15;;;;;;;4.63;78.62;99554.34;4899320;29;20025;-74
2020/12/09 06:30:01;;;;;;;12.98;2.20;;;;;;;4.68;78.36;99551.72;4891817;29;20024;-74
2020/12/09 06:32:43;;;;;;;11.02;1.65;;;;;;;4.66;78.36;99559.28;4895574;29;20024;-73
2020/12/09 06:35:10;;;;;;;6.35;1.92;;;;;;;4.66;78.42;99570.09;4893472;29;20021;-74
2020/12/09 06:37:36;;;;;;;16.33;1.13;;;;;;;4.66;78.14;99558.47;4892908;29;20021;-73
2020/12/09 06:40:19;;;;;;;8.00;1.98;;;;;;;4.66;78.12;99564.69;4910511;29;20064;-72
2020/12/09 06:42:45;;;;;;;6.57;1.20;;;;;;;4.65;78.42;99563.03;4898060;29;20062;-74
2020/12/09 06:45:11;;;;;;;15.02;2.33;;;;;;;4.62;78.12;99562.72;4901513;29;20527;-73
2020/12/09 06:47:36;;;;;;;7.00;1.13;;;;;;;4.60;78.26;99568.41;4896871;29;20036;-74
2020/12/09 06:50:02;;;;;;;13.70;2.05;;;;;;;4.57;78.05;99577.00;4895241;29;20395;-73
2020/12/09 06:52:29;;;;;;;10.82;1.70;;;;;;;4.51;78.81;99572.56;4893472;29;20455;-74
2020/12/09 06:54:55;;;;;;;17.08;1.92;;;;;;;4.42;78.48;99576.75;4893397;29;20037;-74
2020/12/09 06:57:35;;;;;;;8.90;1.73;;;;;;;4.40;78.50;99584.31;4907858;29;20100;-73
2020/12/09 07:00:10;;;;;;;15.23;1.70;;;;;;;4.35;78.78;99582.31;4901831;29;20021;-74
2020/12/09 07:02:36;;;;;;;10.43;1.67;;;;;;;4.29;79.01;99581.44;4892826;29;20525;-73
2020/12/09 07:05:03;;;;;;;9.57;2.22;;;;;;;4.31;78.86;99590.13;4895564;29;20040;-73
2020/12/09 07:07:30;;;;;;;9.00;2.10;;;;;;;4.31;78.85;99590.13;4892246;29;20044;-73
2020/12/09 07:09:58;;;;;;;7.03;1.35;;;;;;;4.30;79.24;99593.88;4888092;29;20033;-74
2020/12/09 07:12:24;;;;;;;8.80;1.35;;;;;;;4.30;79.00;99603.91;4905462;29;20031;-73
2020/12/09 07:14:52;;;;;;;9.48;1.35;;;;;;;4.28;78.81;99593.31;4885529;29;20029;-74
2020/12/09 07:17:21;;;;;;;3.55;1.48;;;;;;;4.27;77.84;99591.69;4894892;29;20052;-74
2020/12/09 07:19:47;;;;;;;3.03;0.93;;;;;;;4.35;78.80;99604.81;4917233;29;20024;-74
2020/12/09 07:22:13;;;;;;;6.72;1.25;;;;;;;4.37;78.64;99602.69;4892530;29;20024;-74
2020/12/09 07:24:38;;;;;;;8.65;1.02;;;;;;;4.43;77.72;99613.59;4892294;29;20521;-73
2020/12/09 07:27:04;;;;;;;5.82;1.17;;;;;;;4.44;77.37;99604.41;4911207;29;20542;-73
2020/12/09 07:29:29;;;;;;;2.55;0.85;;;;;;;4.40;77.78;99605.97;4912029;29;20054;-74
2020/12/09 07:31:59;;;;;;;6.10;0.80;;;;;;;4.32;77.85;99605.31;4917959;29;20096;-73
2020/12/09 07:34:27;;;;;;;14.07;2.35;;;;;;;4.32;77.94;99597.19;4913889;29;20051;-73
2020/12/09 07:36:57;;;;;;;4.90;0.90;;;;;;;4.32;77.31;99609.88;4900310;29;20089;-73
2020/12/09 07:39:34;;;;;;;5.88;0.95;;;;;;;4.27;77.70;99605.22;4921567;29;20063;-73
2020/12/09 07:42:01;;;;;;;4.72;1.30;;;;;;;4.14;77.82;99600.13;4902039;29;20032;-74
2020/12/09 07:44:29;;;;;;;2.72;0.57;;;;;;;4.14;78.12;99616.34;4916598;29;20032;-73
2020/12/09 07:46:56;;;;;;;6.28;1.15;;;;;;;4.06;77.70;99614.03;4904696;29;20024;-75
2020/12/09 07:49:22;;;;;;;6.40;1.63;;;;;;;4.01;78.10;99612.06;4911703;29;20030;-73
2020/12/09 07:51:48;;;;;;;4.80;0.88;;;;;;;3.99;78.15;99597.97;4889744;29;20044;-76
2020/12/09 07:54:14;;;;;;;5.97;1.02;;;;;;;3.98;78.38;99599.81;4905992;29;20028;-74
2020/12/09 07:56:41;;;;;;;6.55;0.77;;;;;;;4.05;78.29;99607.81;4910735;29;20030;-73
2020/12/09 07:59:07;;;;;;;9.45;1.23;;;;;;;3.99;78.71;99596.06;4902518;29;20039;-76
2020/12/09 08:01:57;;;;;;;8.55;1.17;;;;;;;4.01;78.52;99601.22;4924430;29;20034;-75
2020/12/09 08:04:24;;;;;;;8.63;1.75;;;;;;;4.07;78.46;99612.97;4900605;29;20476;-74
2020/12/09 08:06:52;;;;;;;1.45;0.75;;;;;;;4.02;77.99;99609.09;4925556;29;20063;-75
2020/12/09 08:09:18;;;;;;;14.77;1.38;;;;;;;4.04;77.81;99616.16;4884658;29;20031;-74
2020/12/09 08:11:44;;;;;;;10.70;1.42;;;;;;;4.01;78.34;99607.44;4918018;29;20032;-74
2020/12/09 08:14:13;;;;;;;7.13;1.02;;;;;;;4.06;78.34;99614.88;4892539;29;20027;-74
2020/12/09 08:16:39;;;;;;;1.65;0.60;;;;;;;4.07;77.69;99615.69;4921980;29;20047;-75
2020/12/09 08:19:08;;;;;;;8.93;1.73;;;;;;;4.07;77.44;99618.38;4912609;29;20020;-75
2020/12/09 08:21:34;;;;;;;7.78;0.95;;;;;;;4.09;77.72;99619.78;4900993;29;20116;-74
2020/12/09 08:24:15;;;;;;;6.65;1.25;;;;;;;4.07;77.52;99621.91;4915797;29;20036;-75
2020/12/09 08:26:43;;;;;;;6.50;1.35;;;;;;;4.05;77.28;99617.81;4920602;29;20034;-75
2020/12/09 08:29:16;;;;;;;5.07;0.95;;;;;;;4.12;77.99;99629.31;4902948;29;20075;-76
2020/12/09 08:31:41;;;;;;;5.03;1.08;;;;;;;4.06;77.29;99619.44;4901198;29;20020;-75
2020/12/09 08:34:14;;;;;;;5.68;1.10;;;;;;;4.17;77.34;99634.81;4889647;29;20051;-75
2020/12/09 08:36:40;;;;;;;13.82;1.60;;;;;;;4.17;76.86;99637.50;4947615;29;20039;-74
2020/12/09 08:39:06;;;;;;;7.95;1.02;;;;;;;4.15;76.70;99632.34;4936691;29;20123;-74
2020/12/09 08:41:35;;;;;;;8.77;1.77;;;;;;;4.25;76.42;99639.84;4930630;29;20046;-74
2020/12/09 08:44:10;;;;;;;6.18;1.25;;;;;;;4.32;76.04;99643.22;4917778;29;20020;-78
2020/12/09 08:46:36;;;;;;;1.73;0.73;;;;;;;4.39;76.02;99637.63;4920569;29;20120;-77
2020/12/09 08:49:03;;;;;;;6.25;0.90;;;;;;;4.48;75.82;99643.47;4917240;29;20485;-77
2020/12/09 08:51:30;;;;;;;5.63;0.60;;;;;;;4.55;75.26;99644.13;4917739;29;20048;-76
2020/12/09 08:53:57;;;;;;;4.13;1.08;;;;;;;4.68;74.69;99643.78;4896782;29;20029;-76
2020/12/09 08:56:27;;;;;;;3.05;0.52;;;;;;;4.76;75.03;99634.44;4915054;29;20046;-76
2020/12/09 08:58:58;;;;;;;4.07;1.15;;;;;;;4.84;74.06;99634.03;4916358;29;20052;-76
2020/12/09 09:01:29;;;;;;;5.07;0.63;;;;;;;4.96;74.40;99631.22;4910575;29;20036;-80
2020/12/09 09:03:58;;;;;;;2.78;0.65;;;;;;;5.04;73.76;99636.22;4902698;29;20115;-76
2020/12/09 09:06:24;;;;;;;11.45;1.48;;;;;;;5.17;73.37;99634.22;4917926;29;20471;-78
2020/12/09 09:08:49;;;;;;;3.33;0.95;;;;;;;5.34;73.52;99640.41;4907933;29;20071;-76
2020/12/09 09:11:25;;;;;;;6.15;1.58;;;;;;;5.52;73.44;99636.59;4912304;29;20035;-74
2020/12/09 09:13:54;;;;;;;6.97;1.23;;;;;;;5.64;72.33;99633.75;4909504;29;20099;-76
2020/12/09 09:16:23;;;;;;;4.43;0.73;;;;;;;5.80;72.74;99644.78;4912513;28;20434;-76
2020/12/09 09:18:49;;;;;;;0.95;0.40;;;;;;;5.91;72.29;99643.84;4896162;29;20090;-76
2020/12/09 09:21:14;;;;;;;4.68;0.90;;;;;;;6.05;72.08;99649.72;4908353;29;20111;-75
2020/12/09 09:23:40;;;;;;;4.38;1.25;;;;;;;6.15;71.78;99647.13;4906988;29;20052;-76
2020/12/09 09:26:05;;;;;;;7.00;0.70;;;;;;;6.31;71.46;99645.38;4904496;29;20601;-76
2020/12/09 09:28:31;;;;;;;5.60;0.80;;;;;;;6.47;70.84;99646.34;4902915;29;20064;-76
2020/12/09 09:30:56;;;;;;;4.13;1.10;;;;;;;6.65;69.91;99645.13;4914039;29;20025;-76
2020/12/09 09:33:35;;;;;;;;;;;;;;;;;;;;;
2020/12/09 09:36:02;;;;;;;3.83;0.73;;;;;;;7.11;68.62;99650.91;4917687;29;20084;-76
2020/12/09 09:38:27;;;;;;;6.40;0.80;;;;;;;7.23;67.85;99652.59;4910448;29;20095;-76
2020/12/09 09:40:52;;;;;;;2.33;0.85;;;;;;;7.34;66.88;99659.75;4885920;29;20036;-77
2020/12/09 09:43:18;;;;;;;7.22;1.05;;;;;;;7.39;66.68;99651.63;4916241;29;20043;-75
2020/12/09 09:45:44;;;;;;;3.63;0.70;;;;;;;7.43;67.21;99646.47;4915289;29;20056;-77
2020/12/09 09:48:11;;;;;;;5.22;1.05;;;;;;;7.43;66.04;99651.91;4920249;29;20044;-76
2020/12/09 09:50:37;;;;;;;3.72;0.82;;;;;;;7.44;66.94;99648.09;4879222;29;20211;-77
2020/12/09 09:53:02;;;;;;;5.85;1.02;;;;;;;7.42;66.96;99642.94;4906434;29;20088;-77
2020/12/09 09:55:28;;;;;;;3.03;0.40;;;;;;;7.49;67.25;99650.84;4914034;29;20035;-76
2020/12/09 09:57:53;;;;;;;3.55;0.63;;;;;;;7.55;67.13;99648.97;4896962;29;20024;-76
2020/12/09 10:00:19;;;;;;;0.93;0.55;;;;;;;7.58;67.27;99649.28;4910768;29;20502;-75
2020/12/09 10:02:44;;;;;;;3.13;0.50;;;;;;;7.61;66.38;99653.38;4918240;29;20039;-75
2020/12/09 10:05:18;;;;;;;2.90;0.55;;;;;;;7.60;67.27;99646.28;4906270;29;20441;-74
2020/12/09 10:07:44;;;;;;;3.88;0.93;;;;;;;7.50;66.05;99650.59;4896611;29;20028;-77
2020/12/09 10:10:12;;;;;;;5.18;0.60;;;;;;;7.40;67.11;99647.00;4916094;29;20099;-76
2020/12/09 10:12:37;;;;;;;5.68;0.50;;;;;;;7.40;66.71;99647.00;4901170;29;20032;-75
2020/12/09 10:15:03;;;;;;;6.15;1.20;;;;;;;7.29;67.06;99657.81;4904467;29;20035;-76
2020/12/09 10:17:29;;;;;;;4.47;0.85;;;;;;;7.18;67.07;99666.19;4927587;29;20171;-76
2020/12/09 10:19:56;;;;;;;0.77;0.32;;;;;;;7.10;67.55;99665.59;4910505;29;20070;-75
2020/12/09 10:22:21;;;;;;;3.25;0.43;;;;;;;6.93;68.07;99646.69;4901813;29;20460;-76
2020/12/09 10:24:47;;;;;;;1.30;0.55;;;;;;;6.98;68.03;99656.81;4909619;29;20051;-76
2020/12/09 10:27:12;;;;;;;1.85;0.38;;;;;;;6.92;68.71;99653.25;4905005;29;20045;-76
2020/12/09 10:29:37;;;;;;;1.08;0.60;;;;;;;6.91;68.23;99648.06;4914717;29;20175;-76
2020/12/09 10:32:04;;;;;;;1.88;0.82;;;;;;;6.79;68.20;99640.91;4899449;29;20028;-76
2020/12/09 10:34:29;;;;;;;1.33;0.55;;;;;;;6.80;68.21;99645.28;4899456;29;20672;-76
2020/12/09 10:36:55;;;;;;;3.75;1.02;;;;;;;6.77;68.83;99647.66;4911978;29;20034;-76
2020/12/09 10:39:24;;;;;;;1.75;0.45;;;;;;;6.76;69.19;99646.03;4898806;29;20035;-76
2020/12/09 10:41:50;;;;;;;1.80;0.65;;;;;;;6.80;69.21;99644.44;4909607;29;20040;-75
2020/12/09 10:44:17;;;;;;;1.92;1.23;;;;;;;6.77;68.87;99631.38;4915588;29;20028;-77
2020/12/09 10:46:43;;;;;;;1.80;0.68;;;;;;;6.80;69.08;99631.69;4909560;29;20084;-76
2020/12/09 10:49:10;;;;;;;0.47;0.20;;;;;;;6.84;69.37;99628.44;4927982;29;20036;-75
2020/12/09 10:51:44;;;;;;;1.25;0.40;;;;;;;6.92;69.20;99625.22;4902028;29;20107;-76
2020/12/09 10:54:10;;;;;;;1.52;0.63;;;;;;;6.94;69.15;99623.88;4922856;29;20385;-77
2020/12/09 10:56:36;;;;;;;0.93;0.70;;;;;;;6.98;69.70;99626.91;4913344;29;20035;-76
2020/12/09 10:59:02;;;;;;;1.00;0.65;;;;;;;6.98;68.90;99629.63;4901592;29;20051;-74
2020/12/09 11:01:30;;;;;;;7.68;0.80;;;;;;;6.97;68.93;99617.09;4924479;29;20012;-76
2020/12/09 11:04:03;;;;;;;1.98;0.73;;;;;;;6.93;69.60;99616.00;4925765;29;20036;-76
2020/12/09 11:06:32;;;;;;;2.28;1.30;;;;;;;6.86;69.17;99604.53;4908212;29;20076;-76
2020/12/09 11:08:58;;;;;;;1.65;0.50;;;;;;;6.89;69.86;99604.84;4922144;29;20111;-77
2020/12/09 11:11:25;;;;;;;5.15;1.38;;;;;;;6.89;69.14;99604.00;4916152;29;20036;-76
2020/12/09 11:13:50;;;;;;;1.70;0.50;;;;;;;6.88;70.25;99596.91;4886555;29;20046;-77
2020/12/09 11:16:17;;;;;;;1.38;0.52;;;;;;;6.91;69.47;99590.97;4892201;29;20546;-77
2020/12/09 11:18:43;;;;;;;6.75;0.60;;;;;;;6.95;69.46;99597.50;4900036;29;20040;-76
2020/12/09 11:21:09;;;;;;;1.67;0.70;;;;;;;6.96;70.17;99577.41;4888465;29;20032;-76
2020/12/09 11:23:35;;;;;;;2.47;0.80;;;;;;;7.05;69.84;99578.53;4896276;29;20079;-75
2020/12/09 11:26:01;;;;;;;1.98;0.60;;;;;;;7.11;69.65;99579.38;4917287;29;20024;-75
2020/12/09 11:28:27;;;;;;;1.02;0.47;;;;;;;7.19;70.10;99586.25;4902683;29;20035;-76
2020/12/09 11:31:03;;;;;;;;;;;;;;;;;;;;;
2020/12/09 11:33:28;;;;;;;0.77;0.68;;;;;;;7.29;69.31;99587.09;4902310;29;20123;-77
2020/12/09 11:35:55;;;;;;;4.85;1.13;;;;;;;7.38;69.36;99597.50;4901741;29;20576;-76
2020/12/09 11:38:20;;;;;;;4.78;1.30;;;;;;;7.40;69.32;99607.00;4904131;29;20033;-76
2020/12/09 11:40:46;;;;;;;4.95;1.17;;;;;;;7.33;68.27;99603.72;4904990;29;20036;-77
2020/12/09 11:43:13;;;;;;;4.65;1.13;;;;;;;7.25;68.16;99586.00;4892719;29;20407;-77
2020/12/09 11:45:38;;;;;;;5.78;1.98;;;;;;;7.25;68.48;99601.50;4923646;29;20040;-76
2020/12/09 11:48:04;;;;;;;5.80;1.95;;;;;;;7.25;69.25;99596.88;4905647;29;20025;-76
2020/12/09 11:50:29;;;;;;;2.95;1.17;;;;;;;7.20;68.42;99587.88;4913691;29;20088;-77
2020/12/09 11:52:58;;;;;;;6.63;1.40;;;;;;;7.17;68.74;99583.78;4921072;29;20016;-76
2020/12/09 11:55:23;;;;;;;6.30;1.30;;;;;;;7.20;68.68;99577.00;4889669;29;20039;-77
2020/12/09 11:58:05;;;;;;;1.95;1.20;;;;;;;7.26;69.25;99568.59;4882431;29;20116;-75